sensor_id;sensor_type;location;lat;lon;timestamp;pressure;altitude;pressure_sealevel;temperature;humidity
76358;BME280;65185;21.060;105.826;2022-12-18T00:01:19;102946.50;;;16.93;39.48
76358;BME280;65185;21.060;105.826;2022-12-18T00:03:47;102957.91;;;16.95;39.23
76358;BME280;65185;21.060;105.826;2022-12-18T00:06:14;102947.66;;;16.97;39.80
76358;BME280;65185;21.060;105.826;2022-12-18T00:08:42;102961.47;;;16.95;39.84
76358;BME280;65185;21.060;105.826;2022-12-18T00:11:13;102954.38;;;16.94;39.36
76358;BME280;65185;21.060;105.826;2022-12-18T00:13:40;102957.91;;;16.95;40.05
76358;BME280;65185;21.060;105.826;2022-12-18T00:16:12;102961.81;;;16.99;40.03
76358;BME280;65185;21.060;105.826;2022-12-18T00:18:38;102967.25;;;16.99;39.71
76358;BME280;65185;21.060;105.826;2022-12-18T00:21:08;102966.16;;;17.00;39.84
76358;BME280;65185;21.060;105.826;2022-12-18T00:23:35;102964.63;;;17.04;39.85
76358;BME280;65185;21.060;105.826;2022-12-18T00:26:05;102970.63;;;17.06;40.06
76358;BME280;65185;21.060;105.826;2022-12-18T00:28:32;102972.03;;;17.09;40.20
76358;BME280;65185;21.060;105.826;2022-12-18T00:31:13;102965.91;;;17.01;39.49
76358;BME280;65185;21.060;105.826;2022-12-18T00:33:40;102974.75;;;17.09;40.50
76358;BME280;65185;21.060;105.826;2022-12-18T00:36:19;102973.19;;;17.13;39.91
76358;BME280;65185;21.060;105.826;2022-12-18T00:38:46;102968.09;;;17.16;40.96
76358;BME280;65185;21.060;105.826;2022-12-18T00:41:16;102972.19;;;17.19;40.22
76358;BME280;65185;21.060;105.826;2022-12-18T00:44:04;102971.59;;;17.17;40.05
76358;BME280;65185;21.060;105.826;2022-12-18T00:46:31;102971.72;;;17.22;40.47
76358;BME280;65185;21.060;105.826;2022-12-18T00:48:58;102970.41;;;17.24;40.10
76358;BME280;65185;21.060;105.826;2022-12-18T00:51:26;102973.13;;;17.24;39.79
76358;BME280;65185;21.060;105.826;2022-12-18T00:53:53;102977.06;;;17.33;39.13
76358;BME280;65185;21.060;105.826;2022-12-18T00:56:19;102976.81;;;17.35;38.99
76358;BME280;65185;21.060;105.826;2022-12-18T00:58:46;102984.41;;;17.33;38.57
76358;BME280;65185;21.060;105.826;2022-12-18T01:01:13;102987.91;;;17.33;38.50
76358;BME280;65185;21.060;105.826;2022-12-18T01:03:40;102985.19;;;17.33;38.33
76358;BME280;65185;21.060;105.826;2022-12-18T01:06:09;102989.50;;;17.29;38.65
76358;BME280;65185;21.060;105.826;2022-12-18T01:08:36;102990.09;;;17.31;38.51
76358;BME280;65185;21.060;105.826;2022-12-18T01:11:11;102996.66;;;17.35;38.23
76358;BME280;65185;21.060;105.826;2022-12-18T01:13:39;102991.47;;;17.34;38.60
76358;BME280;65185;21.060;105.826;2022-12-18T01:16:06;103002.91;;;17.36;38.26
76358;BME280;65185;21.060;105.826;2022-12-18T01:18:35;103004.56;;;17.37;38.71
76358;BME280;65185;21.060;105.826;2022-12-18T01:21:07;103000.88;;;17.43;38.82
76358;BME280;65185;21.060;105.826;2022-12-18T01:23:34;103013.47;;;17.49;38.57
76358;BME280;65185;21.060;105.826;2022-12-18T01:26:08;103014.03;;;17.51;37.97
76358;BME280;65185;21.060;105.826;2022-12-18T01:28:36;103014.38;;;17.55;38.54
76358;BME280;65185;21.060;105.826;2022-12-18T01:31:14;103016.59;;;17.58;37.81
76358;BME280;65185;21.060;105.826;2022-12-18T01:33:42;103012.50;;;17.55;36.79
76358;BME280;65185;21.060;105.826;2022-12-18T01:36:18;103018.25;;;17.59;36.41
76358;BME280;65185;21.060;105.826;2022-12-18T01:38:45;103023.47;;;17.60;37.42
76358;BME280;65185;21.060;105.826;2022-12-18T01:41:13;103025.09;;;17.61;36.21
76358;BME280;65185;21.060;105.826;2022-12-18T01:46:21;103028.06;;;17.76;34.38
76358;BME280;65185;21.060;105.826;2022-12-18T01:48:49;103039.34;;;17.68;34.44
76358;BME280;65185;21.060;105.826;2022-12-18T01:51:17;103036.38;;;17.70;35.27
76358;BME280;65185;21.060;105.826;2022-12-18T01:53:45;103045.84;;;17.67;35.49
76358;BME280;65185;21.060;105.826;2022-12-18T01:56:15;103039.09;;;17.70;35.62
76358;BME280;65185;21.060;105.826;2022-12-18T02:01:15;103044.69;;;17.80;36.34
76358;BME280;65185;21.060;105.826;2022-12-18T02:03:43;103038.28;;;17.86;36.18
76358;BME280;65185;21.060;105.826;2022-12-18T02:09:05;103032.53;;;17.82;35.46
76358;BME280;65185;21.060;105.826;2022-12-18T02:20:28;103013.41;;;17.94;33.87
76358;BME280;65185;21.060;105.826;2022-12-18T02:22:40;103021.94;;;18.03;33.60
76358;BME280;65185;21.060;105.826;2022-12-18T02:28:16;103018.09;;;18.37;33.29
76358;BME280;65185;21.060;105.826;2022-12-18T02:30:47;103010.09;;;18.52;33.13
76358;BME280;65185;21.060;105.826;2022-12-18T02:33:16;103007.47;;;18.57;32.37
76358;BME280;65185;21.060;105.826;2022-12-18T02:35:45;102998.53;;;18.62;32.89
76358;BME280;65185;21.060;105.826;2022-12-18T02:38:14;102995.88;;;18.67;32.05
76358;BME280;65185;21.060;105.826;2022-12-18T02:40:42;102998.59;;;18.67;31.69
76358;BME280;65185;21.060;105.826;2022-12-18T02:43:12;102990.44;;;18.67;32.41
76358;BME280;65185;21.060;105.826;2022-12-18T02:45:52;102985.72;;;18.84;31.77
76358;BME280;65185;21.060;105.826;2022-12-18T02:48:23;102989.69;;;18.98;31.97
76358;BME280;65185;21.060;105.826;2022-12-18T02:51:29;102980.78;;;19.08;31.97
76358;BME280;65185;21.060;105.826;2022-12-18T02:54:10;102976.06;;;19.25;30.85
76358;BME280;65185;21.060;105.826;2022-12-18T02:56:50;102971.25;;;19.37;31.04
76358;BME280;65185;21.060;105.826;2022-12-18T03:06:14;102953.88;;;19.43;30.97
76358;BME280;65185;21.060;105.826;2022-12-18T03:08:44;102947.03;;;19.41;31.56
76358;BME280;65185;21.060;105.826;2022-12-18T03:11:14;102949.72;;;19.36;31.06
76358;BME280;65185;21.060;105.826;2022-12-18T03:13:46;102936.13;;;19.41;30.98
76358;BME280;65185;21.060;105.826;2022-12-18T03:16:21;102930.88;;;19.61;31.31
76358;BME280;65185;21.060;105.826;2022-12-18T03:19:01;102930.06;;;19.66;30.21
76358;BME280;65185;21.060;105.826;2022-12-18T03:21:37;102925.44;;;19.66;29.40
76358;BME280;65185;21.060;105.826;2022-12-18T03:24:08;102906.66;;;19.70;30.31
76358;BME280;65185;21.060;105.826;2022-12-18T03:26:38;102910.00;;;19.82;30.77
76358;BME280;65185;21.060;105.826;2022-12-18T03:29:27;102909.84;;;20.14;30.24
76358;BME280;65185;21.060;105.826;2022-12-18T03:32:01;102898.72;;;20.25;30.54
76358;BME280;65185;21.060;105.826;2022-12-18T03:34:35;102889.78;;;20.40;30.14
76358;BME280;65185;21.060;105.826;2022-12-18T03:37:05;102882.75;;;20.69;30.48
76358;BME280;65185;21.060;105.826;2022-12-18T03:39:33;102880.31;;;20.78;28.98
76358;BME280;65185;21.060;105.826;2022-12-18T03:45:00;102863.34;;;20.91;29.42
76358;BME280;65185;21.060;105.826;2022-12-18T03:47:35;102857.63;;;20.98;28.96
76358;BME280;65185;21.060;105.826;2022-12-18T03:50:11;102849.16;;;20.94;29.40
76358;BME280;65185;21.060;105.826;2022-12-18T03:53:14;102842.31;;;20.92;29.90
76358;BME280;65185;21.060;105.826;2022-12-18T03:55:37;102842.31;;;20.92;30.74
76358;BME280;65185;21.060;105.826;2022-12-18T03:58:06;102827.84;;;20.86;29.33
76358;BME280;65185;21.060;105.826;2022-12-18T04:00:35;102825.41;;;20.74;29.68
76358;BME280;65185;21.060;105.826;2022-12-18T04:03:02;102804.66;;;20.79;29.84
76358;BME280;65185;21.060;105.826;2022-12-18T04:05:31;102806.56;;;20.88;30.06
76358;BME280;65185;21.060;105.826;2022-12-18T04:08:01;102798.91;;;20.95;29.51
76358;BME280;65185;21.060;105.826;2022-12-18T04:10:28;102792.63;;;20.90;29.27
76358;BME280;65185;21.060;105.826;2022-12-18T04:12:57;102782.50;;;20.90;30.13
76358;BME280;65185;21.060;105.826;2022-12-18T04:15:24;102789.34;;;20.98;30.13
76358;BME280;65185;21.060;105.826;2022-12-18T04:17:51;102776.50;;;20.98;30.24
76358;BME280;65185;21.060;105.826;2022-12-18T04:20:18;102769.38;;;21.02;29.71
76358;BME280;65185;21.060;105.826;2022-12-18T04:22:45;102748.63;;;20.91;28.68
76358;BME280;65185;21.060;105.826;2022-12-18T04:25:12;102745.91;;;20.91;29.34
76358;BME280;65185;21.060;105.826;2022-12-18T04:27:38;102729.00;;;20.89;29.33
76358;BME280;65185;21.060;105.826;2022-12-18T04:30:06;102729.22;;;21.23;28.94
76358;BME280;65185;21.060;105.826;2022-12-18T04:32:34;102715.81;;;21.22;29.53
76358;BME280;65185;21.060;105.826;2022-12-18T04:35:02;102716.84;;;21.36;29.79
76358;BME280;65185;21.060;105.826;2022-12-18T04:37:30;102698.59;;;21.21;29.48
76358;BME280;65185;21.060;105.826;2022-12-18T04:39:57;102691.25;;;21.17;29.50
76358;BME280;65185;21.060;105.826;2022-12-18T04:42:23;102680.50;;;21.30;29.21
76358;BME280;65185;21.060;105.826;2022-12-18T04:44:50;102676.66;;;21.36;28.41
76358;BME280;65185;21.060;105.826;2022-12-18T04:47:17;102667.91;;;21.39;28.91
76358;BME280;65185;21.060;105.826;2022-12-18T04:49:44;102660.84;;;21.33;29.77
76358;BME280;65185;21.060;105.826;2022-12-18T04:52:11;102646.38;;;21.28;30.37
76358;BME280;65185;21.060;105.826;2022-12-18T04:54:37;102636.03;;;21.20;28.83
76358;BME280;65185;21.060;105.826;2022-12-18T04:57:04;102622.38;;;21.14;28.97
76358;BME280;65185;21.060;105.826;2022-12-18T04:59:31;102616.94;;;21.04;29.67
76358;BME280;65185;21.060;105.826;2022-12-18T05:01:58;102608.13;;;21.12;29.52
76358;BME280;65185;21.060;105.826;2022-12-18T05:04:24;102597.75;;;21.20;30.34
76358;BME280;65185;21.060;105.826;2022-12-18T05:06:51;102593.38;;;21.19;29.89
76358;BME280;65185;21.060;105.826;2022-12-18T05:09:18;102577.41;;;21.41;29.83
76358;BME280;65185;21.060;105.826;2022-12-18T05:11:45;102567.47;;;21.16;28.96
76358;BME280;65185;21.060;105.826;2022-12-18T05:14:12;102561.69;;;21.12;29.29
76358;BME280;65185;21.060;105.826;2022-12-18T05:16:39;102544.47;;;21.22;29.13
76358;BME280;65185;21.060;105.826;2022-12-18T05:19:06;102531.66;;;21.18;29.89
76358;BME280;65185;21.060;105.826;2022-12-18T05:21:33;102532.25;;;21.04;29.42
76358;BME280;65185;21.060;105.826;2022-12-18T05:24:00;102518.88;;;21.03;29.20
76358;BME280;65185;21.060;105.826;2022-12-18T05:26:27;102508.28;;;20.91;29.36
76358;BME280;65185;21.060;105.826;2022-12-18T05:28:54;102504.22;;;20.89;29.62
76358;BME280;65185;21.060;105.826;2022-12-18T05:31:21;102491.13;;;20.81;30.19
76358;BME280;65185;21.060;105.826;2022-12-18T05:33:48;102486.25;;;20.78;29.83
76358;BME280;65185;21.060;105.826;2022-12-18T05:36:15;102483.63;;;21.01;30.61
76358;BME280;65185;21.060;105.826;2022-12-18T05:38:41;102477.94;;;20.98;29.89
76358;BME280;65185;21.060;105.826;2022-12-18T05:41:09;102465.41;;;20.92;30.09
76358;BME280;65185;21.060;105.826;2022-12-18T05:43:37;102455.38;;;20.82;28.91
76358;BME280;65185;21.060;105.826;2022-12-18T05:46:13;102451.31;;;20.74;29.44
76358;BME280;65185;21.060;105.826;2022-12-18T05:48:40;102439.53;;;20.84;30.00
76358;BME280;65185;21.060;105.826;2022-12-18T05:51:09;102438.66;;;20.89;29.29
76358;BME280;65185;21.060;105.826;2022-12-18T05:53:36;102422.16;;;21.04;29.24
76358;BME280;65185;21.060;105.826;2022-12-18T05:56:09;102420.34;;;20.94;29.76
76358;BME280;65185;21.060;105.826;2022-12-18T05:58:37;102423.97;;;20.80;29.27
76358;BME280;65185;21.060;105.826;2022-12-18T06:01:10;102413.06;;;20.74;29.51
76358;BME280;65185;21.060;105.826;2022-12-18T06:03:37;102399.44;;;20.74;29.31
76358;BME280;65185;21.060;105.826;2022-12-18T06:06:12;102393.38;;;20.83;27.71
76358;BME280;65185;21.060;105.826;2022-12-18T06:08:39;102379.72;;;20.83;28.90
76358;BME280;65185;21.060;105.826;2022-12-18T06:11:06;102378.88;;;20.87;29.96
76358;BME280;65185;21.060;105.826;2022-12-18T06:13:33;102369.28;;;20.90;29.88
76358;BME280;65185;21.060;105.826;2022-12-18T06:16:05;102361.16;;;20.80;29.24
76358;BME280;65185;21.060;105.826;2022-12-18T06:18:32;102356.06;;;21.02;29.58
76358;BME280;65185;21.060;105.826;2022-12-18T06:21:00;102349.22;;;21.04;28.47
76358;BME280;65185;21.060;105.826;2022-12-18T06:23:28;102344.56;;;21.05;29.11
76358;BME280;65185;21.060;105.826;2022-12-18T06:25:55;102338.53;;;21.08;28.76
76358;BME280;65185;21.060;105.826;2022-12-18T06:28:22;102324.97;;;20.98;29.15
76358;BME280;65185;21.060;105.826;2022-12-18T06:30:50;102316.59;;;20.89;28.62
76358;BME280;65185;21.060;105.826;2022-12-18T06:33:17;102311.94;;;20.90;29.32
76358;BME280;65185;21.060;105.826;2022-12-18T06:35:44;102306.66;;;20.98;29.85
76358;BME280;65185;21.060;105.826;2022-12-18T06:38:11;102305.28;;;21.01;30.11
76358;BME280;65185;21.060;105.826;2022-12-18T06:40:39;102297.16;;;20.91;29.53
76358;BME280;65185;21.060;105.826;2022-12-18T06:43:06;102284.25;;;20.72;28.41
76358;BME280;65185;21.060;105.826;2022-12-18T06:45:33;102279.09;;;20.66;29.16
76358;BME280;65185;21.060;105.826;2022-12-18T06:48:00;102276.38;;;20.66;29.13
76358;BME280;65185;21.060;105.826;2022-12-18T06:50:27;102266.81;;;20.63;30.11
76358;BME280;65185;21.060;105.826;2022-12-18T06:52:54;102267.09;;;20.67;29.60
76358;BME280;65185;21.060;105.826;2022-12-18T06:55:25;102265.22;;;20.57;29.49
76358;BME280;65185;21.060;105.826;2022-12-18T06:57:52;102253.25;;;20.53;28.88
76358;BME280;65185;21.060;105.826;2022-12-18T07:00:19;102251.91;;;20.51;28.63
76358;BME280;65185;21.060;105.826;2022-12-18T07:02:45;102251.13;;;20.50;28.75
76358;BME280;65185;21.060;105.826;2022-12-18T07:05:12;102244.31;;;20.48;28.14
76358;BME280;65185;21.060;105.826;2022-12-18T07:07:39;102234.22;;;20.48;28.61
76358;BME280;65185;21.060;105.826;2022-12-18T07:10:06;102224.97;;;20.44;29.79
76358;BME280;65185;21.060;105.826;2022-12-18T07:12:33;102225.78;;;20.40;29.75
76358;BME280;65185;21.060;105.826;2022-12-18T07:15:00;102228.25;;;20.41;30.10
76358;BME280;65185;21.060;105.826;2022-12-18T07:17:27;102217.88;;;20.43;30.61
76358;BME280;65185;21.060;105.826;2022-12-18T07:19:55;102208.88;;;20.71;31.06
76358;BME280;65185;21.060;105.826;2022-12-18T07:22:22;102211.03;;;20.74;30.41
76358;BME280;65185;21.060;105.826;2022-12-18T07:24:51;102204.69;;;20.84;30.35
76358;BME280;65185;21.060;105.826;2022-12-18T07:27:18;102197.28;;;20.85;30.02
76358;BME280;65185;21.060;105.826;2022-12-18T07:29:44;102204.69;;;20.79;30.09
76358;BME280;65185;21.060;105.826;2022-12-18T07:32:11;102206.00;;;20.87;29.43
76358;BME280;65185;21.060;105.826;2022-12-18T07:34:38;102196.16;;;20.86;27.97
76358;BME280;65185;21.060;105.826;2022-12-18T07:37:05;102200.94;;;20.75;28.61
76358;BME280;65185;21.060;105.826;2022-12-18T07:39:32;102197.00;;;20.57;29.09
76358;BME280;65185;21.060;105.826;2022-12-18T07:41:59;102187.56;;;20.45;29.17
76358;BME280;65185;21.060;105.826;2022-12-18T07:44:43;102183.59;;;20.32;30.35
76358;BME280;65185;21.060;105.826;2022-12-18T07:47:10;102176.78;;;20.24;30.39
76358;BME280;65185;21.060;105.826;2022-12-18T07:49:37;102178.78;;;20.14;29.40
76358;BME280;65185;21.060;105.826;2022-12-18T07:52:04;102177.78;;;20.05;29.32
76358;BME280;65185;21.060;105.826;2022-12-18T07:54:31;102174.50;;;20.03;29.57
76358;BME280;65185;21.060;105.826;2022-12-18T07:57:00;102175.91;;;20.00;29.67
76358;BME280;65185;21.060;105.826;2022-12-18T07:59:26;102174.25;;;19.99;29.39
76358;BME280;65185;21.060;105.826;2022-12-18T08:01:53;102167.41;;;20.02;29.20
76358;BME280;65185;21.060;105.826;2022-12-18T08:04:20;102165.09;;;20.19;29.85
76358;BME280;65185;21.060;105.826;2022-12-18T08:06:47;102163.28;;;20.09;29.12
76358;BME280;65185;21.060;105.826;2022-12-18T08:09:14;102154.31;;;20.04;29.54
76358;BME280;65185;21.060;105.826;2022-12-18T08:11:41;102155.19;;;19.99;30.04
76358;BME280;65185;21.060;105.826;2022-12-18T08:14:08;102145.84;;;20.05;30.21
76358;BME280;65185;21.060;105.826;2022-12-18T08:16:35;102149.91;;;20.08;30.76
76358;BME280;65185;21.060;105.826;2022-12-18T08:19:03;102152.69;;;20.03;29.65
76358;BME280;65185;21.060;105.826;2022-12-18T08:21:30;102147.22;;;20.03;30.50
76358;BME280;65185;21.060;105.826;2022-12-18T08:24:00;102142.06;;;20.01;30.86
76358;BME280;65185;21.060;105.826;2022-12-18T08:26:29;102138.50;;;20.01;30.96
76358;BME280;65185;21.060;105.826;2022-12-18T08:28:58;102146.19;;;19.99;31.04
76358;BME280;65185;21.060;105.826;2022-12-18T08:31:27;102144.81;;;19.96;31.27
76358;BME280;65185;21.060;105.826;2022-12-18T08:33:54;102147.34;;;19.87;30.73
76358;BME280;65185;21.060;105.826;2022-12-18T08:36:22;102146.84;;;19.80;30.66
76358;BME280;65185;21.060;105.826;2022-12-18T08:38:49;102142.78;;;19.78;30.07
76358;BME280;65185;21.060;105.826;2022-12-18T08:41:17;102140.34;;;19.76;30.96
76358;BME280;65185;21.060;105.826;2022-12-18T08:43:44;102137.63;;;19.76;31.76
76358;BME280;65185;21.060;105.826;2022-12-18T08:46:34;102137.06;;;19.74;31.91
76358;BME280;65185;21.060;105.826;2022-12-18T08:49:01;102134.94;;;19.71;31.92
76358;BME280;65185;21.060;105.826;2022-12-18T08:51:28;102132.75;;;19.68;32.05
76358;BME280;65185;21.060;105.826;2022-12-18T08:53:55;102135.50;;;19.63;32.51
76358;BME280;65185;21.060;105.826;2022-12-18T08:56:22;102130.66;;;19.55;32.31
76358;BME280;65185;21.060;105.826;2022-12-18T08:58:52;102128.47;;;19.57;32.15
76358;BME280;65185;21.060;105.826;2022-12-18T09:01:19;102129.28;;;19.58;33.28
76358;BME280;65185;21.060;105.826;2022-12-18T09:03:51;102125.50;;;19.54;33.52
76358;BME280;65185;21.060;105.826;2022-12-18T09:06:19;102121.69;;;19.55;33.83
76358;BME280;65185;21.060;105.826;2022-12-18T09:08:47;102135.56;;;19.53;33.64
76358;BME280;65185;21.060;105.826;2022-12-18T09:11:25;102135.84;;;19.51;33.92
76358;BME280;65185;21.060;105.826;2022-12-18T09:13:53;102138.88;;;19.50;33.47
76358;BME280;65185;21.060;105.826;2022-12-18T09:16:22;102137.25;;;19.49;33.07
76358;BME280;65185;21.060;105.826;2022-12-18T09:18:49;102133.44;;;19.45;32.74
76358;BME280;65185;21.060;105.826;2022-12-18T09:21:18;102140.50;;;19.41;33.09
76358;BME280;65185;21.060;105.826;2022-12-18T09:23:55;102144.09;;;19.36;33.99
76358;BME280;65185;21.060;105.826;2022-12-18T09:26:23;102143.56;;;19.29;33.51
76358;BME280;65185;21.060;105.826;2022-12-18T09:28:51;102147.91;;;19.30;33.99
76358;BME280;65185;21.060;105.826;2022-12-18T09:31:20;102155.28;;;19.30;33.66
76358;BME280;65185;21.060;105.826;2022-12-18T09:33:47;102152.81;;;19.28;33.67
76358;BME280;65185;21.060;105.826;2022-12-18T09:36:16;102151.50;;;19.26;34.44
76358;BME280;65185;21.060;105.826;2022-12-18T09:38:43;102147.13;;;19.25;33.97
76358;BME280;65185;21.060;105.826;2022-12-18T09:41:44;102148.22;;;19.24;34.29
76358;BME280;65185;21.060;105.826;2022-12-18T09:49:30;102153.16;;;19.22;34.62
76358;BME280;65185;21.060;105.826;2022-12-18T09:52:37;102151.25;;;19.22;34.84
76358;BME280;65185;21.060;105.826;2022-12-18T09:57:45;102148.25;;;19.19;34.78
76358;BME280;65185;21.060;105.826;2022-12-18T10:00:20;102146.59;;;19.18;34.73
76358;BME280;65185;21.060;105.826;2022-12-18T10:02:48;102145.00;;;19.17;34.40
76358;BME280;65185;21.060;105.826;2022-12-18T10:05:44;102151.53;;;19.16;35.56
76358;BME280;65185;21.060;105.826;2022-12-18T10:08:39;102149.34;;;19.13;35.59
76358;BME280;65185;21.060;105.826;2022-12-18T10:11:16;102146.94;;;19.11;35.55
76358;BME280;65185;21.060;105.826;2022-12-18T10:14:01;102142.84;;;19.08;36.16
76358;BME280;65185;21.060;105.826;2022-12-18T10:17:35;102149.94;;;19.04;36.59
76358;BME280;65185;21.060;105.826;2022-12-18T10:28:15;102144.53;;;18.84;38.11
76358;BME280;65185;21.060;105.826;2022-12-18T10:30:42;102142.38;;;18.81;38.28
76358;BME280;65185;21.060;105.826;2022-12-18T10:33:16;102135.88;;;18.77;38.62
76358;BME280;65185;21.060;105.826;2022-12-18T10:35:44;102142.66;;;18.75;39.31
76358;BME280;65185;21.060;105.826;2022-12-18T10:43:32;102145.69;;;18.63;39.55
76358;BME280;65185;21.060;105.826;2022-12-18T10:51:31;102154.94;;;18.47;38.90
76358;BME280;65185;21.060;105.826;2022-12-18T10:54:19;102163.66;;;18.44;39.70
76358;BME280;65185;21.060;105.826;2022-12-18T10:56:48;102160.13;;;18.38;39.52
76358;BME280;65185;21.060;105.826;2022-12-18T10:59:17;102162.03;;;18.38;40.50
76358;BME280;65185;21.060;105.826;2022-12-18T11:01:54;102162.84;;;18.43;40.40
76358;BME280;65185;21.060;105.826;2022-12-18T11:04:30;102172.09;;;18.42;40.27
76358;BME280;65185;21.060;105.826;2022-12-18T11:07:03;102169.34;;;18.42;39.95
76358;BME280;65185;21.060;105.826;2022-12-18T11:09:38;102172.91;;;18.43;39.88
76358;BME280;65185;21.060;105.826;2022-12-18T11:12:19;102174.53;;;18.44;39.47
76358;BME280;65185;21.060;105.826;2022-12-18T11:14:52;102170.69;;;18.45;39.00
76358;BME280;65185;21.060;105.826;2022-12-18T11:17:31;102169.63;;;18.46;39.52
76358;BME280;65185;21.060;105.826;2022-12-18T11:23:02;102177.78;;;18.46;39.77
76358;BME280;65185;21.060;105.826;2022-12-18T11:25:32;102180.78;;;18.44;39.66
76358;BME280;65185;21.060;105.826;2022-12-18T11:28:05;102174.81;;;18.42;40.07
76358;BME280;65185;21.060;105.826;2022-12-18T11:30:37;102175.88;;;18.41;40.51
76358;BME280;65185;21.060;105.826;2022-12-18T11:33:05;102180.25;;;18.42;40.42
76358;BME280;65185;21.060;105.826;2022-12-18T11:38:34;102190.03;;;18.33;40.17
76358;BME280;65185;21.060;105.826;2022-12-18T11:43:50;102193.03;;;18.21;40.48
76358;BME280;65185;21.060;105.826;2022-12-18T11:49:25;102202.25;;;18.10;40.43
76358;BME280;65185;21.060;105.826;2022-12-18T11:52:37;102205.50;;;18.12;41.60
76358;BME280;65185;21.060;105.826;2022-12-18T11:54:38;102210.69;;;18.09;40.56
76358;BME280;65185;21.060;105.826;2022-12-18T12:00:14;102215.03;;;18.05;42.43
76358;BME280;65185;21.060;105.826;2022-12-18T12:08:26;102230.53;;;18.04;41.93
76358;BME280;65185;21.060;105.826;2022-12-18T12:11:41;102234.84;;;18.00;42.29
76358;BME280;65185;21.060;105.826;2022-12-18T12:23:05;102244.59;;;17.76;41.32
76358;BME280;65185;21.060;105.826;2022-12-18T12:33:18;102262.81;;;17.80;42.46
76358;BME280;65185;21.060;105.826;2022-12-18T12:38:57;102267.72;;;17.89;43.62
76358;BME280;65185;21.060;105.826;2022-12-18T12:41:31;102279.38;;;17.84;43.50
76358;BME280;65185;21.060;105.826;2022-12-18T12:44:47;102284.28;;;17.77;43.82
76358;BME280;65185;21.060;105.826;2022-12-18T12:47:25;102273.09;;;17.73;44.52
76358;BME280;65185;21.060;105.826;2022-12-18T12:49:54;102276.38;;;17.80;45.40
76358;BME280;65185;21.060;105.826;2022-12-18T12:52:36;102279.13;;;17.85;45.63
76358;BME280;65185;21.060;105.826;2022-12-18T12:55:07;102282.66;;;17.86;44.67
76358;BME280;65185;21.060;105.826;2022-12-18T12:58:33;102281.81;;;17.80;44.22
76358;BME280;65185;21.060;105.826;2022-12-18T13:06:05;102290.78;;;17.76;44.82
76358;BME280;65185;21.060;105.826;2022-12-18T13:08:51;102291.59;;;17.71;44.63
76358;BME280;65185;21.060;105.826;2022-12-18T13:14:22;102295.41;;;17.75;45.66
76358;BME280;65185;21.060;105.826;2022-12-18T13:16:50;102301.66;;;17.81;45.82
76358;BME280;65185;21.060;105.826;2022-12-18T13:19:25;102307.34;;;17.74;45.86
76358;BME280;65185;21.060;105.826;2022-12-18T13:21:55;102303.78;;;17.69;46.13
76358;BME280;65185;21.060;105.826;2022-12-18T13:24:28;102307.56;;;17.63;46.27
76358;BME280;65185;21.060;105.826;2022-12-18T13:26:57;102310.28;;;17.63;47.33
76358;BME280;65185;21.060;105.826;2022-12-18T13:29:44;102309.97;;;17.59;46.67
76358;BME280;65185;21.060;105.826;2022-12-18T13:32:24;102317.25;;;17.54;46.41
76358;BME280;65185;21.060;105.826;2022-12-18T13:35:52;102314.28;;;17.55;46.09
76358;BME280;65185;21.060;105.826;2022-12-18T13:38:02;102309.66;;;17.56;45.90
76358;BME280;65185;21.060;105.826;2022-12-18T13:40:53;102308.88;;;17.55;44.83
76358;BME280;65185;21.060;105.826;2022-12-18T13:51:54;102305.84;;;17.57;42.11
76358;BME280;65185;21.060;105.826;2022-12-18T13:54:39;102303.97;;;17.57;41.87
76358;BME280;65185;21.060;105.826;2022-12-18T13:57:30;102309.97;;;17.59;41.14
76358;BME280;65185;21.060;105.826;2022-12-18T14:03:24;102311.09;;;17.63;40.83
76358;BME280;65185;21.060;105.826;2022-12-18T14:06:00;102307.56;;;17.63;40.39
76358;BME280;65185;21.060;105.826;2022-12-18T14:08:37;102308.63;;;17.62;40.05
76358;BME280;65185;21.060;105.826;2022-12-18T14:11:07;102313.53;;;17.60;40.08
76358;BME280;65185;21.060;105.826;2022-12-18T14:13:46;102303.72;;;17.59;39.88
76358;BME280;65185;21.060;105.826;2022-12-18T14:16:15;102302.59;;;17.55;39.45
76358;BME280;65185;21.060;105.826;2022-12-18T14:18:54;102312.09;;;17.52;39.91
76358;BME280;65185;21.060;105.826;2022-12-18T14:21:28;102305.31;;;17.50;39.85
76358;BME280;65185;21.060;105.826;2022-12-18T14:24:16;102305.53;;;17.43;39.98
76358;BME280;65185;21.060;105.826;2022-12-18T14:26:45;102310.97;;;17.43;40.44
76358;BME280;65185;21.060;105.826;2022-12-18T14:32:19;102316.06;;;17.34;41.68
76358;BME280;65185;21.060;105.826;2022-12-18T14:34:53;102316.34;;;17.33;41.77
76358;BME280;65185;21.060;105.826;2022-12-18T14:37:24;102312.22;;;17.30;42.32
76358;BME280;65185;21.060;105.826;2022-12-18T14:40:02;102314.69;;;17.32;42.90
76358;BME280;65185;21.060;105.826;2022-12-18T14:42:30;102310.38;;;17.36;42.82
76358;BME280;65185;21.060;105.826;2022-12-18T14:50:36;102313.88;;;17.31;42.02
76358;BME280;65185;21.060;105.826;2022-12-18T14:53:03;102315.78;;;17.31;42.46
76358;BME280;65185;21.060;105.826;2022-12-18T14:55:30;102310.06;;;17.27;42.07
76358;BME280;65185;21.060;105.826;2022-12-18T14:57:57;102310.81;;;17.23;42.45